createdAt,value
2023-01-29T00:02:12.230Z,102973.78
2023-01-29T00:04:38.723Z,102970.28
2023-01-29T00:07:05.198Z,102965.19
2023-01-29T00:09:32.172Z,102957.25
2023-01-29T00:11:58.604Z,102955.53
2023-01-29T00:14:26.319Z,102963.56
2023-01-29T00:16:54.325Z,102962.75
2023-01-29T00:19:23.302Z,102960.03
2023-01-29T00:21:49.766Z,102955.00
2023-01-29T00:24:18.827Z,102959.31
2023-01-29T00:26:45.285Z,102964.66
2023-01-29T00:29:12.001Z,102962.94
2023-01-29T00:31:38.510Z,102963.94
2023-01-29T00:34:04.881Z,102967.34
2023-01-29T00:36:31.251Z,102959.44
2023-01-29T00:39:01.721Z,102955.13
2023-01-29T00:41:51.236Z,102948.28
2023-01-29T00:44:36.428Z,102940.28
2023-01-29T00:47:03.884Z,102952.41
2023-01-29T00:49:30.522Z,102937.38
2023-01-29T00:52:16.032Z,102942.41
2023-01-29T00:54:42.624Z,102936.31
2023-01-29T00:57:09.130Z,102942.50
2023-01-29T00:59:35.457Z,102939.09
2023-01-29T01:02:20.572Z,102938.28
2023-01-29T01:04:47.206Z,102924.06
2023-01-29T01:07:13.559Z,102924.34
2023-01-29T01:09:58.714Z,102914.88
2023-01-29T01:12:25.382Z,102928.38
2023-01-29T01:14:51.821Z,102921.38
2023-01-29T01:17:18.176Z,102928.50
2023-01-29T01:19:45.111Z,102937.09
2023-01-29T01:22:12.094Z,102933.69
2023-01-29T01:24:39.125Z,102945.91
2023-01-29T01:27:06.314Z,102948.53
2023-01-29T01:29:33.174Z,102946.81
2023-01-29T01:32:02.583Z,102945.09
2023-01-29T01:34:29.144Z,102951.31
2023-01-29T01:36:59.154Z,102952.31
2023-01-29T01:39:25.708Z,102938.56
2023-01-29T01:41:53.630Z,102943.88
2023-01-29T01:44:52.556Z,102942.25
2023-01-29T01:47:33.932Z,102933.44
2023-01-29T01:50:12.343Z,102938.75
2023-01-29T01:52:45.073Z,102938.66
2023-01-29T01:55:14.460Z,102936.03
2023-01-29T01:57:44.635Z,102941.38
2023-01-29T02:00:15.730Z,102946.47
2023-01-29T02:03:03.475Z,102943.16
2023-01-29T02:05:51.161Z,102948.50
2023-01-29T02:08:54.095Z,102942.06
2023-01-29T02:11:20.537Z,102937.75
2023-01-29T02:13:47.073Z,102934.25
2023-01-29T02:16:13.549Z,102933.25
2023-01-29T02:18:39.937Z,102930.75
2023-01-29T02:21:30.552Z,102933.19
2023-01-29T02:24:28.932Z,102944.41
2023-01-29T02:27:02.993Z,102952.13
2023-01-29T02:29:57.155Z,102958.34
2023-01-29T02:32:36.218Z,102954.81
2023-01-29T02:35:32.077Z,102955.75
2023-01-29T02:38:17.899Z,102957.34
2023-01-29T02:40:49.795Z,102963.16
2023-01-29T02:43:40.404Z,102961.44
2023-01-29T02:46:39.333Z,102953.75
2023-01-29T02:49:37.693Z,102950.31
2023-01-29T02:52:21.512Z,102952.03
2023-01-29T02:55:04.827Z,102949.34
2023-01-29T02:57:44.583Z,102946.63
2023-01-29T03:00:17.360Z,102944.03
2023-01-29T03:02:54.260Z,102938.69
2023-01-29T03:05:44.795Z,102926.66
2023-01-29T03:08:15.526Z,102934.50
2023-01-29T03:10:54.445Z,102931.00
2023-01-29T03:13:45.574Z,102929.09
2023-01-29T03:16:34.855Z,102924.28
2023-01-29T03:19:22.843Z,102934.72
2023-01-29T03:21:59.979Z,102929.44
2023-01-29T03:24:50.507Z,102923.03
2023-01-29T03:27:39.412Z,102919.59
2023-01-29T03:30:28.707Z,102912.59
2023-01-29T03:32:59.200Z,102905.31
2023-01-29T03:35:39.350Z,102897.31
2023-01-29T03:38:11.348Z,102896.91
2023-01-29T03:40:56.305Z,102895.09
2023-01-29T03:43:46.881Z,102888.19
2023-01-29T03:46:24.432Z,102882.69
2023-01-29T03:49:11.916Z,102898.31
2023-01-29T03:52:01.751Z,102877.28
2023-01-29T03:55:06.909Z,102886.69
2023-01-29T03:57:41.754Z,102880.09
2023-01-29T04:00:21.186Z,102882.63
2023-01-29T04:03:14.216Z,102876.59
2023-01-29T04:06:09.854Z,102869.59
2023-01-29T04:08:51.015Z,102881.81
2023-01-29T04:11:20.794Z,102880.03
2023-01-29T04:13:47.874Z,102872.47
2023-01-29T04:16:20.720Z,102868.09
2023-01-29T04:18:48.503Z,102875.31
2023-01-29T04:21:16.105Z,102868.28
2023-01-29T04:23:42.576Z,102871.69
2023-01-29T04:26:35.771Z,102866.31
2023-01-29T04:29:24.996Z,102869.69
2023-01-29T04:32:15.065Z,102866.19
2023-01-29T04:35:15.928Z,102864.28
2023-01-29T04:37:54.489Z,102857.38
2023-01-29T04:40:28.683Z,102852.34
2023-01-29T04:43:06.254Z,102847.94
2023-01-29T04:46:04.563Z,102847.94
2023-01-29T04:48:45.727Z,102845.47
2023-01-29T04:51:25.003Z,102840.03
2023-01-29T04:54:08.046Z,102835.63
2023-01-29T04:56:40.164Z,102830.44
2023-01-29T04:59:15.080Z,102825.84
2023-01-29T05:01:41.966Z,102828.34
2023-01-29T05:04:14.152Z,102829.88
2023-01-29T05:06:42.008Z,102824.34
2023-01-29T05:09:09.773Z,102824.53
2023-01-29T05:11:38.467Z,102824.44
2023-01-29T05:14:08.875Z,102823.72
2023-01-29T05:16:44.188Z,102825.44
2023-01-29T05:19:13.428Z,102826.44
2023-01-29T05:21:42.261Z,102824.66
2023-01-29T05:24:10.285Z,102826.34
2023-01-29T05:26:55.567Z,102834.25
2023-01-29T05:29:22.175Z,102832.47
2023-01-29T05:31:48.670Z,102822.94
2023-01-29T05:34:15.147Z,102822.84
2023-01-29T05:36:41.592Z,102823.84
2023-01-29T05:39:08.001Z,102823.94
2023-01-29T05:41:34.415Z,102823.94
2023-01-29T05:44:00.848Z,102823.13
2023-01-29T05:46:27.261Z,102826.94
2023-01-29T05:48:53.654Z,102832.03
2023-01-29T05:51:20.116Z,102830.44
2023-01-29T05:53:46.549Z,102821.53
2023-01-29T05:56:13.009Z,102809.50
2023-01-29T05:58:39.398Z,102802.28
2023-01-29T06:01:10.268Z,102803.00
2023-01-29T06:03:36.683Z,102802.13
2023-01-29T06:06:03.272Z,102790.97
2023-01-29T06:08:29.606Z,102789.97
2023-01-29T06:10:56.071Z,102778.56
2023-01-29T06:13:23.694Z,102795.09
2023-01-29T06:15:50.239Z,102788.97
2023-01-29T06:18:16.740Z,102782.06
2023-01-29T06:20:43.164Z,102788.91
2023-01-29T06:23:09.648Z,102778.50
2023-01-29T06:25:36.074Z,102774.34
2023-01-29T06:28:02.475Z,102774.16
2023-01-29T06:30:29.000Z,102775.66
2023-01-29T06:32:58.718Z,102768.66
2023-01-29T06:35:25.784Z,102770.19
2023-01-29T06:37:52.311Z,102771.78
2023-01-29T06:40:19.173Z,102772.69
2023-01-29T06:42:46.231Z,102776.63
2023-01-29T06:45:12.809Z,102786.81
2023-01-29T06:47:39.239Z,102778.63
2023-01-29T06:50:06.164Z,102786.56
2023-01-29T06:52:32.596Z,102783.66
2023-01-29T06:54:58.968Z,102778.44
2023-01-29T06:57:25.417Z,102762.72
2023-01-29T06:59:51.872Z,102763.84
2023-01-29T07:02:18.302Z,102766.31
2023-01-29T07:04:44.823Z,102754.03
2023-01-29T07:07:13.234Z,102757.50
2023-01-29T07:09:41.081Z,102762.72
2023-01-29T07:12:08.340Z,102760.13
2023-01-29T07:14:34.713Z,102760.81
2023-01-29T07:17:01.053Z,102773.56
2023-01-29T07:19:27.492Z,102771.88
2023-01-29T07:21:53.957Z,102771.88
2023-01-29T07:24:20.685Z,102761.44
2023-01-29T07:26:47.167Z,102773.06
2023-01-29T07:29:13.801Z,102768.63
2023-01-29T07:31:42.374Z,102774.78
2023-01-29T07:34:11.340Z,102777.38
2023-01-29T07:36:37.842Z,102770.34
2023-01-29T07:39:04.293Z,102767.03
2023-01-29T07:41:33.932Z,102759.63
2023-01-29T07:44:00.395Z,102762.22
2023-01-29T07:46:26.823Z,102767.34
2023-01-29T07:48:53.142Z,102752.22
2023-01-29T07:51:21.367Z,102730.41
2023-01-29T07:53:47.811Z,102732.31
2023-01-29T07:56:14.273Z,102748.81
2023-01-29T07:58:40.767Z,102741.72
2023-01-29T08:01:08.212Z,102728.69
2023-01-29T08:03:35.882Z,102728.81
2023-01-29T08:06:06.873Z,102715.59
2023-01-29T08:08:33.376Z,102731.28
2023-01-29T08:11:05.556Z,102733.00
2023-01-29T08:13:32.702Z,102731.28
2023-01-29T08:16:01.158Z,102735.91
2023-01-29T08:18:27.880Z,102732.59
2023-01-29T08:20:59.921Z,102735.19
2023-01-29T08:23:26.347Z,102728.19
2023-01-29T08:25:52.729Z,102732.41
2023-01-29T08:28:19.207Z,102733.31
2023-01-29T08:30:45.786Z,102726.38
2023-01-29T08:33:12.222Z,102724.50
2023-01-29T08:35:38.841Z,102711.28
2023-01-29T08:38:07.326Z,102712.56
2023-01-29T08:40:35.426Z,102711.59
2023-01-29T08:43:05.484Z,102703.66
2023-01-29T08:45:38.207Z,102710.88
2023-01-29T08:48:07.993Z,102705.66
2023-01-29T08:50:35.117Z,102694.44
2023-01-29T08:53:03.757Z,102707.81
2023-01-29T08:55:30.164Z,102710.34
2023-01-29T08:57:59.283Z,102703.31
2023-01-29T09:00:25.889Z,102692.72
2023-01-29T09:02:52.499Z,102693.84
2023-01-29T09:05:19.488Z,102686.81
2023-01-29T09:07:46.246Z,102698.31
2023-01-29T09:10:13.331Z,102694.91
2023-01-29T09:12:48.897Z,102682.78
2023-01-29T09:15:21.202Z,102690.06
2023-01-29T09:17:49.416Z,102688.56
2023-01-29T09:20:16.860Z,102689.47
2023-01-29T09:22:55.108Z,102693.84
2023-01-29T09:25:21.688Z,102692.97
2023-01-29T09:27:48.063Z,102696.38
2023-01-29T09:30:14.992Z,102708.69
2023-01-29T09:32:57.521Z,102716.59
2023-01-29T09:35:24.249Z,102704.38
2023-01-29T09:37:59.195Z,102701.25
2023-01-29T09:40:38.278Z,102703.03
2023-01-29T09:43:13.429Z,102703.13
2023-01-29T09:45:57.233Z,102689.69
2023-01-29T09:48:28.653Z,102687.25
2023-01-29T09:50:58.467Z,102689.94
2023-01-29T09:53:50.561Z,102699.56
2023-01-29T09:56:22.193Z,102683.03
2023-01-29T09:58:48.657Z,102683.13
2023-01-29T10:01:29.675Z,102684.91
2023-01-29T10:04:06.676Z,102686.91
2023-01-29T10:07:01.471Z,102684.28
2023-01-29T10:09:45.970Z,102679.97
2023-01-29T10:12:30.642Z,102679.91
2023-01-29T10:15:17.450Z,102672.09
2023-01-29T10:18:08.920Z,102657.91
2023-01-29T10:21:29.876Z,102665.06
2023-01-29T10:24:17.582Z,102659.97
2023-01-29T10:26:44.080Z,102651.25
2023-01-29T10:29:18.112Z,102653.03
2023-01-29T10:31:49.792Z,102647.81
2023-01-29T10:34:44.176Z,102657.41
2023-01-29T10:37:24.888Z,102652.84
2023-01-29T10:39:51.336Z,102641.53
2023-01-29T10:42:25.819Z,102648.81
2023-01-29T10:45:19.610Z,102641.97
2023-01-29T10:47:59.723Z,102636.84
2023-01-29T10:50:47.770Z,102632.53
2023-01-29T10:53:45.733Z,102621.22
2023-01-29T10:56:25.214Z,102628.22
2023-01-29T10:58:55.651Z,102621.22
2023-01-29T11:01:22.302Z,102613.50
2023-01-29T11:04:01.557Z,102602.88
2023-01-29T11:06:34.109Z,102610.09
2023-01-29T11:09:29.252Z,102603.34
2023-01-29T11:12:11.095Z,102603.25
2023-01-29T11:14:51.738Z,102615.47
2023-01-29T11:17:20.526Z,102601.66
2023-01-29T11:19:48.815Z,102598.13
2023-01-29T11:22:19.923Z,102605.22
2023-01-29T11:25:06.549Z,102601.56
2023-01-29T11:27:35.468Z,102600.56
2023-01-29T11:30:02.097Z,102597.16
2023-01-29T11:32:32.630Z,102579.25
2023-01-29T11:35:19.453Z,102592.03
2023-01-29T11:37:47.476Z,102586.81
2023-01-29T11:40:19.986Z,102585.75
2023-01-29T11:42:47.192Z,102584.03
2023-01-29T11:45:32.375Z,102580.53
2023-01-29T11:47:59.699Z,102575.22
2023-01-29T11:50:30.740Z,102569.22
2023-01-29T11:52:59.899Z,102552.66
2023-01-29T11:55:49.330Z,102547.38
2023-01-29T11:58:23.393Z,102549.00
2023-01-29T12:00:51.987Z,102548.09
2023-01-29T12:03:28.934Z,102550.78
2023-01-29T12:05:59.538Z,102536.69
2023-01-29T12:08:33.734Z,102535.81
2023-01-29T12:11:35.976Z,102536.06
2023-01-29T12:14:06.193Z,102526.38
2023-01-29T12:16:41.022Z,102522.94
2023-01-29T12:19:31.696Z,102515.28
2023-01-29T12:22:02.927Z,102502.81
2023-01-29T12:24:54.932Z,102515.28
2023-01-29T12:27:27.323Z,102503.16
2023-01-29T12:30:11.367Z,102496.25
2023-01-29T12:32:54.167Z,102491.13
2023-01-29T12:35:30.648Z,102480.63
2023-01-29T12:38:22.381Z,102477.03
2023-01-29T12:41:00.472Z,102465.06
2023-01-29T12:43:42.118Z,102466.94
2023-01-29T12:46:18.627Z,102461.72
2023-01-29T12:48:49.304Z,102438.94
2023-01-29T12:51:20.712Z,102442.78
2023-01-29T12:53:58.272Z,102424.63
2023-01-29T12:56:47.160Z,102412.03
2023-01-29T12:59:25.302Z,102399.22
2023-01-29T13:02:13.175Z,102392.69
2023-01-29T13:04:48.337Z,102381.63
2023-01-29T13:07:24.747Z,102375.59
2023-01-29T13:09:55.087Z,102368.84
2023-01-29T13:12:23.050Z,102369.09
2023-01-29T13:14:54.982Z,102360.34
2023-01-29T13:17:42.280Z,102351.81
2023-01-29T13:20:23.279Z,102351.94
2023-01-29T13:22:53.037Z,102342.50
2023-01-29T13:25:20.690Z,102342.69
2023-01-29T13:27:48.587Z,102333.19
2023-01-29T13:30:33.234Z,102331.63
2023-01-29T13:33:10.223Z,102338.63
2023-01-29T13:35:41.258Z,102333.72
2023-01-29T13:38:29.445Z,102327.59
2023-01-29T13:41:01.629Z,102326.81
2023-01-29T13:43:33.984Z,102323.44
2023-01-29T13:46:12.730Z,102320.00
2023-01-29T13:48:46.650Z,102321.88
2023-01-29T13:51:19.517Z,102319.38
2023-01-29T13:53:56.367Z,102317.50
2023-01-29T13:56:33.116Z,102313.03
2023-01-29T13:59:01.262Z,102319.13
2023-01-29T14:01:49.360Z,102312.13
2023-01-29T14:04:19.926Z,102313.03
2023-01-29T14:07:03.178Z,102302.75
2023-01-29T14:09:37.054Z,102307.13
2023-01-29T14:12:21.818Z,102299.44
2023-01-29T14:14:48.208Z,102296.84
2023-01-29T14:17:16.477Z,102291.63
2023-01-29T14:19:59.346Z,102288.28
2023-01-29T14:22:28.507Z,102294.47
2023-01-29T14:25:00.466Z,102286.59
2023-01-29T14:27:28.057Z,102291.72
2023-01-29T14:30:18.634Z,102287.38
2023-01-29T14:32:50.007Z,102290.88
2023-01-29T14:35:25.467Z,102278.66
2023-01-29T14:37:56.274Z,102282.16
2023-01-29T14:40:25.241Z,102275.19
2023-01-29T14:43:20.795Z,102268.31
2023-01-29T14:45:49.375Z,102264.75
2023-01-29T14:48:34.166Z,102247.38
2023-01-29T14:51:09.747Z,102248.19
2023-01-29T14:54:23.124Z,102254.44
2023-01-29T14:56:58.664Z,102247.50
2023-01-29T14:59:43.673Z,102251.75
2023-01-29T15:02:26.375Z,102246.53
2023-01-29T15:04:56.695Z,102249.97
2023-01-29T15:07:27.390Z,102254.59
2023-01-29T15:10:24.387Z,102241.66
2023-01-29T15:12:54.142Z,102245.97
2023-01-29T15:15:26.122Z,102244.16
2023-01-29T15:18:03.408Z,102243.19
2023-01-29T15:20:29.947Z,102237.81
2023-01-29T15:22:57.026Z,102232.47
2023-01-29T15:25:23.962Z,102227.25
2023-01-29T15:27:50.638Z,102225.53
2023-01-29T15:30:31.477Z,102237.69
2023-01-29T15:32:58.514Z,102228.97
2023-01-29T15:35:39.597Z,102218.53
2023-01-29T15:38:25.441Z,102197.06
2023-01-29T15:40:57.851Z,102217.56
2023-01-29T15:43:27.351Z,102204.47
2023-01-29T15:45:59.935Z,102203.47
2023-01-29T15:48:37.263Z,102218.91
2023-01-29T15:51:07.866Z,102210.03
2023-01-29T15:53:48.955Z,102209.81
2023-01-29T15:56:22.397Z,102210.41
2023-01-29T15:58:50.788Z,102218.38
2023-01-29T16:01:17.884Z,102226.97
2023-01-29T16:03:45.541Z,102210.41
2023-01-29T16:06:12.342Z,102209.38
2023-01-29T16:08:40.002Z,102220.50
2023-01-29T16:11:07.644Z,102214.16
2023-01-29T16:13:37.026Z,102213.97
2023-01-29T16:16:19.266Z,102227.84
2023-01-29T16:18:59.588Z,102212.94
2023-01-29T16:21:38.178Z,102216.38
2023-01-29T16:24:10.122Z,102216.28
2023-01-29T16:26:38.321Z,102211.81
2023-01-29T16:29:11.093Z,102213.63
2023-01-29T16:31:38.623Z,102206.53
2023-01-29T16:34:16.678Z,102200.34
2023-01-29T16:36:55.230Z,102201.81
2023-01-29T16:39:27.300Z,102205.97
2023-01-29T16:42:24.120Z,102207.69
2023-01-29T16:44:52.746Z,102200.53
2023-01-29T16:47:27.415Z,102182.28
2023-01-29T16:49:56.637Z,102178.06
2023-01-29T16:52:32.280Z,102172.84
2023-01-29T16:55:20.976Z,102176.41
2023-01-29T16:57:53.256Z,102178.38
2023-01-29T17:00:29.591Z,102185.69
2023-01-29T17:03:04.366Z,102176.88
2023-01-29T17:05:33.555Z,102184.75
2023-01-29T17:08:00.388Z,102186.25
2023-01-29T17:10:28.912Z,102177.63
2023-01-29T17:13:05.017Z,102182.25
2023-01-29T17:15:43.710Z,102166.75
2023-01-29T17:18:31.827Z,102162.22
2023-01-29T17:20:58.478Z,102164.84
2023-01-29T17:23:25.028Z,102150.97
2023-01-29T17:25:51.777Z,102158.06
2023-01-29T17:28:18.527Z,102141.53
2023-01-29T17:30:56.625Z,102149.41
2023-01-29T17:33:31.775Z,102148.50
2023-01-29T17:35:58.241Z,102139.06
2023-01-29T17:38:26.583Z,102136.31
2023-01-29T17:41:00.262Z,102140.69
2023-01-29T17:43:29.084Z,102130.22
2023-01-29T17:45:55.789Z,102132.81
2023-01-29T17:48:25.036Z,102115.22
2023-01-29T17:50:54.206Z,102114.50
2023-01-29T17:53:22.095Z,102101.97
2023-01-29T17:55:49.043Z,102120.59
2023-01-29T17:58:26.683Z,102126.63
2023-01-29T18:00:54.367Z,102111.88
2023-01-29T18:03:21.510Z,102095.41
2023-01-29T18:05:49.668Z,102110.25
2023-01-29T18:08:23.069Z,102092.81
2023-01-29T18:10:49.565Z,102091.78
2023-01-29T18:13:15.976Z,102091.91
2023-01-29T18:15:42.326Z,102081.44
2023-01-29T18:18:14.010Z,102081.25
2023-01-29T18:20:40.787Z,102077.03
2023-01-29T18:23:08.525Z,102058.34
2023-01-29T18:25:35.254Z,102060.25
2023-01-29T18:28:02.157Z,102060.13
2023-01-29T18:30:28.907Z,102058.78
2023-01-29T18:32:55.349Z,102046.63
2023-01-29T18:35:22.158Z,102053.66
2023-01-29T18:37:48.585Z,102032.72
2023-01-29T18:40:17.148Z,102042.25
2023-01-29T18:42:47.253Z,102029.00
2023-01-29T18:45:13.989Z,102031.84
2023-01-29T18:47:40.818Z,102024.75
2023-01-29T18:50:08.764Z,102013.50
2023-01-29T18:52:36.752Z,102036.06
2023-01-29T18:55:03.245Z,102020.38
2023-01-29T18:58:27.917Z,101993.63
2023-01-29T19:00:16.632Z,101990.03
2023-01-29T19:02:45.834Z,101990.88
2023-01-29T19:05:12.397Z,101974.97
2023-01-29T19:07:38.886Z,101968.84
2023-01-29T19:10:09.219Z,101992.75
2023-01-29T19:12:35.739Z,101997.28
2023-01-29T19:15:02.156Z,101999.94
2023-01-29T19:17:28.718Z,101993.09
2023-01-29T19:19:56.499Z,101991.38
2023-01-29T19:22:22.906Z,101987.00
2023-01-29T19:24:49.415Z,101990.50
2023-01-29T19:27:15.894Z,101991.59
2023-01-29T19:29:42.487Z,101979.56
2023-01-29T19:32:09.151Z,101962.50
2023-01-29T19:34:35.489Z,101976.84
2023-01-29T19:37:01.961Z,101967.25
2023-01-29T19:39:32.388Z,101969.16
2023-01-29T19:41:59.003Z,101973.63
2023-01-29T19:44:25.439Z,101977.97
2023-01-29T19:46:53.118Z,101973.59
2023-01-29T19:49:19.571Z,101982.22
2023-01-29T19:51:46.284Z,101966.44
2023-01-29T19:54:12.865Z,101970.75
2023-01-29T19:56:39.275Z,101963.91
2023-01-29T19:59:07.355Z,101975.22
2023-01-29T20:01:34.188Z,101977.88
2023-01-29T20:04:00.831Z,101962.41
2023-01-29T20:06:30.910Z,101939.63
2023-01-29T20:08:58.043Z,101959.81
2023-01-29T20:11:25.053Z,101965.06
2023-01-29T20:13:56.641Z,101950.31
2023-01-29T20:16:23.974Z,101945.03
2023-01-29T20:18:50.833Z,101944.91
2023-01-29T20:21:22.807Z,101937.09
2023-01-29T20:23:50.598Z,101941.56
2023-01-29T20:26:18.057Z,101917.25
2023-01-29T20:28:47.961Z,101936.38
2023-01-29T20:31:15.129Z,101940.63
2023-01-29T20:33:42.063Z,101944.28
2023-01-29T20:36:10.691Z,101946.06
2023-01-29T20:38:37.574Z,101924.38
2023-01-29T20:41:09.566Z,101937.50
2023-01-29T20:43:36.233Z,101935.72
2023-01-29T20:46:05.642Z,101957.63
2023-01-29T20:48:35.444Z,101942.13
2023-01-29T20:51:16.774Z,101946.53
2023-01-29T20:53:48.032Z,101927.31
2023-01-29T20:56:16.373Z,101926.59
2023-01-29T20:58:43.286Z,101920.59
2023-01-29T21:01:11.935Z,101924.97
2023-01-29T21:03:39.783Z,101924.28
2023-01-29T21:06:08.442Z,101925.22
2023-01-29T21:08:35.962Z,101937.59
2023-01-29T21:11:03.911Z,101932.38
2023-01-29T21:13:30.844Z,101936.00
2023-01-29T21:16:00.331Z,101931.53
2023-01-29T21:18:26.851Z,101928.94
2023-01-29T21:20:54.122Z,101917.69
2023-01-29T21:23:20.683Z,101930.03
2023-01-29T21:25:47.999Z,101911.78
2023-01-29T21:28:15.527Z,101919.47
2023-01-29T21:30:42.036Z,101935.38
2023-01-29T21:33:08.677Z,101931.22
2023-01-29T21:35:36.933Z,101924.34
2023-01-29T21:38:04.060Z,101893.84
2023-01-29T21:40:30.623Z,101886.91
2023-01-29T21:43:12.336Z,101866.03
2023-01-29T21:45:39.444Z,101860.03
2023-01-29T21:48:06.179Z,101843.53
2023-01-29T21:50:32.582Z,101824.38
2023-01-29T21:52:59.085Z,101811.41
2023-01-29T21:55:25.535Z,101799.19
2023-01-29T21:57:52.060Z,101803.63
2023-01-29T22:00:19.234Z,101801.78
2023-01-29T22:02:46.200Z,101799.19
2023-01-29T22:05:19.397Z,101807.97
2023-01-29T22:07:49.893Z,101816.69
2023-01-29T22:10:17.939Z,101815.84
2023-01-29T22:12:44.922Z,101807.25
2023-01-29T22:15:12.311Z,101808.97
2023-01-29T22:17:41.166Z,101791.56
2023-01-29T22:20:12.469Z,101790.84
2023-01-29T22:22:38.908Z,101777.78
2023-01-29T22:25:05.840Z,101780.47
2023-01-29T22:27:33.582Z,101793.59
2023-01-29T22:30:00.119Z,101784.94
2023-01-29T22:32:26.958Z,101771.03
2023-01-29T22:34:53.398Z,101777.31
2023-01-29T22:37:22.838Z,101772.09
2023-01-29T22:39:49.447Z,101751.91
2023-01-29T22:42:18.706Z,101761.00
2023-01-29T22:44:45.559Z,101768.06
2023-01-29T22:47:14.513Z,101759.50
2023-01-29T22:49:41.563Z,101758.69
2023-01-29T22:52:11.106Z,101744.81
2023-01-29T22:54:42.531Z,101759.81
2023-01-29T22:57:14.184Z,101768.66
2023-01-29T22:59:41.410Z,101766.06
2023-01-29T23:02:08.683Z,101767.19
2023-01-29T23:04:35.280Z,101753.44
2023-01-29T23:07:02.151Z,101751.63
2023-01-29T23:09:28.744Z,101748.34
2023-01-29T23:11:55.261Z,101740.69
2023-01-29T23:14:21.834Z,101725.94
2023-01-29T23:16:48.319Z,101737.44
2023-01-29T23:19:15.760Z,101737.56
2023-01-29T23:21:42.164Z,101731.56
2023-01-29T23:24:09.125Z,101731.63
2023-01-29T23:26:57.474Z,101722.94
2023-01-29T23:29:23.871Z,101700.38
2023-01-29T23:31:50.378Z,101686.56
2023-01-29T23:34:16.968Z,101683.16
2023-01-29T23:36:43.683Z,101696.22
2023-01-29T23:39:10.539Z,101698.06
2023-01-29T23:41:36.970Z,101678.06
2023-01-29T23:44:04.265Z,101687.78
2023-01-29T23:46:31.003Z,101677.44
2023-01-29T23:48:57.520Z,101676.66
2023-01-29T23:51:24.222Z,101670.66
2023-01-29T23:53:50.689Z,101672.44
2023-01-29T23:56:17.364Z,101662.94
2023-01-29T23:58:44.751Z,101674.34
